Time;durP1;ratioP1;P1;durP2;ratioP2;P2;SDS_P1;SDS_P2;PMS_P1;PMS_P2;Temp;Humidity;BMP_temperature;BMP_pressure;BME280_temperature;BME280_humidity;BME280_pressure;Samples;Min_cycle;Max_cycle;Signal;HPM_P1;HPM_P2
2023/04/17 00:00:18;;;;;;;;;;;;;;;;;;6169011;23;19927;-79
2023/04/17 00:02:45;;;;;;;;;;;;;;;;;;6131127;23;19939;-79
2023/04/17 00:05:12;;;;;;;;;;;;;;;;;;6154422;23;19920;-80
2023/04/17 00:07:40;;;;;;;;;;;;;;;;;;6181366;23;19931;-79
2023/04/17 00:10:07;;;;;;;;;;;;;;;;;;6180811;23;19947;-79
2023/04/17 00:12:37;;;;;;;;;;;;;;;;;;6155729;23;19927;-79
2023/04/17 00:15:08;;;;;;;;;;;;;;;;;;6156335;23;19920;-79
2023/04/17 00:17:35;;;;;;;;;;;;;;;;;;6130961;23;19931;-79
2023/04/17 00:20:06;;;;;;;;;;;;;;;;;;6129638;23;19920;-79
2023/04/17 00:22:33;;;;;;;;;;;;;;;;;;6182694;23;19943;-79
2023/04/17 00:25:00;;;;;;;;;;;;;;;;;;6156754;23;19924;-79
2023/04/17 00:27:30;;;;;;;;;;;;;;;;;;6155338;23;20260;-79
2023/04/17 00:29:57;;;;;;;;;;;;;;;;;;6155973;23;20387;-79
2023/04/17 00:32:25;;;;;;;;;;;;;;;;;;6155906;23;20323;-79
2023/04/17 00:34:52;;;;;;;;;;;;;;;;;;6156160;23;19920;-79
2023/04/17 00:37:19;;;;;;;;;;;;;;;;;;6154966;23;19921;-79
2023/04/17 00:39:46;;;;;;;;;;;;;;;;;;6128465;23;19931;-79
2023/04/17 00:42:15;;;;;;;;;;;;;;;;;;6155817;23;20260;-79
2023/04/17 00:44:42;;;;;;;;;;;;;;;;;;6131423;23;19921;-79
2023/04/17 00:47:12;;;;;;;;;;;;;;;;;;6156079;23;19920;-79
2023/04/17 00:49:40;;;;;;;;;;;;;;;;;;6131013;23;19920;-79
2023/04/17 00:52:10;;;;;;;;;;;;;;;;;;6129833;23;19947;-79
2023/04/17 00:54:39;;;;;;;;;;;;;;;;;;6131326;23;19921;-79
2023/04/17 00:57:08;;;;;;;;;;;;;;;;;;6131147;23;19920;-79
2023/04/17 00:59:35;;;;;;;;;;;;;;;;;;6129797;23;19965;-79
2023/04/17 01:02:02;;;;;;;;;;;;;;;;;;6155921;23;19921;-79
2023/04/17 01:04:29;;;;;;;;;;;;;;;;;;6154961;23;20396;-79
2023/04/17 01:06:59;;;;;;;;;;;;;;;;;;6130778;23;20296;-79
2023/04/17 01:09:26;;;;;;;;;;;;;;;;;;6165977;23;19943;-79
2023/04/17 01:12:10;;;;;;;;;;;;;;;;;;6165183;23;19924;-79
2023/04/17 01:14:37;;;;;;;;;;;;;;;;;;6180566;23;19927;-80
2023/04/17 01:17:04;;;;;;;;;;;;;;;;;;6132077;23;19921;-80
2023/04/17 01:19:34;;;;;;;;;;;;;;;;;;6155459;23;19936;-80
2023/04/17 01:22:05;;;;;;;;;;;;;;;;;;6155181;23;19920;-80
2023/04/17 01:24:33;;;;;;;;;;;;;;;;;;6155602;23;19977;-80
2023/04/17 01:27:02;;;;;;;;;;;;;;;;;;6181516;23;19921;-80
2023/04/17 01:29:30;;;;;;;;;;;;;;;;;;6129394;23;19935;-80
2023/04/17 01:31:58;;;;;;;;;;;;;;;;;;6155295;23;19927;-80
2023/04/17 01:34:27;;;;;;;;;;;;;;;;;;6129106;23;20237;-80
2023/04/17 01:36:54;;;;;;;;;;;;;;;;;;6156196;23;19935;-80
2023/04/17 01:39:21;;;;;;;;;;;;;;;;;;6155654;23;19924;-80
2023/04/17 01:41:50;;;;;;;;;;;;;;;;;;6155802;23;20344;-80
2023/04/17 01:44:17;;;;;;;;;;;;;;;;;;6160478;23;19928;-80
2023/04/17 01:46:46;;;;;;;;;;;;;;;;;;6156676;23;19927;-80
2023/04/17 01:49:18;;;;;;;;;;;;;;;;;;6130248;23;19920;-80
2023/04/17 01:51:44;;;;;;;;;;;;;;;;;;6132030;23;19924;-80
2023/04/17 01:54:15;;;;;;;;;;;;;;;;;;6153186;23;19928;-80
2023/04/17 01:56:42;;;;;;;;;;;;;;;;;;6155812;23;19925;-80
2023/04/17 01:59:10;;;;;;;;;;;;;;;;;;6155243;23;19924;-80
2023/04/17 02:01:42;;;;;;;;;;;;;;;;;;6165603;23;20340;-80
2023/04/17 02:04:09;;;;;;;;;;;;;;;;;;6154649;23;19927;-80
2023/04/17 02:06:36;;;;;;;;;;;;;;;;;;6155688;23;19920;-80
2023/04/17 02:09:03;;;;;;;;;;;;;;;;;;6129998;23;19924;-80
2023/04/17 02:11:30;;;;;;;;;;;;;;;;;;6155641;23;19920;-80
2023/04/17 02:13:57;;;;;;;;;;;;;;;;;;6128785;23;19931;-80
2023/04/17 02:16:25;;;;;;;;;;;;;;;;;;6155160;23;19921;-80
2023/04/17 02:18:57;;;;;;;;;;;;;;;;;;6155717;23;20415;-80
2023/04/17 02:21:25;;;;;;;;;;;;;;;;;;6154914;23;19920;-80
2023/04/17 02:23:52;;;;;;;;;;;;;;;;;;6129527;23;19924;-80
2023/04/17 02:26:22;;;;;;;;;;;;;;;;;;6132821;23;20260;-80
2023/04/17 02:28:52;;;;;;;;;;;;;;;;;;6156867;23;19920;-80
2023/04/17 02:31:19;;;;;;;;;;;;;;;;;;6157995;23;19927;-80
2023/04/17 02:33:52;;;;;;;;;;;;;;;;;;6157529;23;20115;-86
2023/04/17 02:36:19;;;;;;;;;;;;;;;;;;6165307;23;20248;-87
2023/04/17 02:38:46;;;;;;;;;;;;;;;;;;6132194;23;20344;-87
2023/04/17 02:41:16;;;;;;;;;;;;;;;;;;6134103;23;20344;-87
2023/04/17 02:43:44;;;;;;;;;;;;;;;;;;6133162;23;19920;-87
2023/04/17 02:46:11;;;;;;;;;;;;;;;;;;6158126;23;19920;-87
2023/04/17 02:48:40;;;;;;;;;;;;;;;;;;6133629;23;19925;-87
2023/04/17 02:51:11;;;;;;;;;;;;;;;;;;6159280;23;19924;-87
2023/04/17 02:53:38;;;;;;;;;;;;;;;;;;6194004;23;19920;-87
2023/04/17 02:56:05;;;;;;;;;;;;;;;;;;6157763;23;19932;-87
2023/04/17 02:58:34;;;;;;;;;;;;;;;;;;6134067;23;19920;-87
2023/04/17 03:01:01;;;;;;;;;;;;;;;;;;6133296;23;19928;-87
2023/04/17 03:03:33;;;;;;;;;;;;;;;;;;6158516;23;19920;-87
2023/04/17 03:06:01;;;;;;;;;;;;;;;;;;6157626;23;20367;-87
2023/04/17 03:08:34;;;;;;;;;;;;;;;;;;6158309;23;20344;-85
2023/04/17 03:11:01;;;;;;;;;;;;;;;;;;6157836;23;19924;-87
2023/04/17 03:13:31;;;;;;;;;;;;;;;;;;6159064;23;19928;-87
2023/04/17 03:15:59;;;;;;;;;;;;;;;;;;6132979;23;20340;-88
2023/04/17 03:18:26;;;;;;;;;;;;;;;;;;6157541;23;19920;-88
2023/04/17 03:20:53;;;;;;;;;;;;;;;;;;6134167;23;20256;-87
2023/04/17 03:23:20;;;;;;;;;;;;;;;;;;6184969;23;19947;-87
2023/04/17 03:25:49;;;;;;;;;;;;;;;;;;6156709;23;19924;-87
2023/04/17 03:28:17;;;;;;;;;;;;;;;;;;6156848;23;19928;-87
2023/04/17 03:30:46;;;;;;;;;;;;;;;;;;6132981;23;19920;-87
2023/04/17 03:33:16;;;;;;;;;;;;;;;;;;6184455;23;19927;-87
2023/04/17 03:35:46;;;;;;;;;;;;;;;;;;6157226;23;19931;-87
2023/04/17 03:38:13;;;;;;;;;;;;;;;;;;6129812;23;20275;-86
2023/04/17 03:40:44;;;;;;;;;;;;;;;;;;6167662;23;19920;-87
2023/04/17 03:43:16;;;;;;;;;;;;;;;;;;6156861;23;19924;-87
2023/04/17 03:45:43;;;;;;;;;;;;;;;;;;6158628;23;19920;-86
2023/04/17 03:48:10;;;;;;;;;;;;;;;;;;6157715;23;20303;-86
2023/04/17 03:50:40;;;;;;;;;;;;;;;;;;6133464;23;19924;-86
2023/04/17 03:53:07;;;;;;;;;;;;;;;;;;6156977;23;20329;-88
2023/04/17 03:55:36;;;;;;;;;;;;;;;;;;6157962;23;20352;-87
2023/04/17 03:58:07;;;;;;;;;;;;;;;;;;6159409;23;19920;-88
2023/04/17 04:00:37;;;;;;;;;;;;;;;;;;6132752;23;19928;-89
2023/04/17 04:03:08;;;;;;;;;;;;;;;;;;6131811;23;19921;-88
2023/04/17 04:05:39;;;;;;;;;;;;;;;;;;6160050;23;19948;-88
2023/04/17 04:08:09;;;;;;;;;;;;;;;;;;6156325;23;19931;-87
2023/04/17 04:10:44;;;;;;;;;;;;;;;;;;6167297;23;19927;-88
2023/04/17 04:13:13;;;;;;;;;;;;;;;;;;6157174;23;19924;-86
2023/04/17 04:15:47;;;;;;;;;;;;;;;;;;6132836;23;19921;-87
2023/04/17 04:18:19;;;;;;;;;;;;;;;;;;6167992;23;20347;-86
2023/04/17 04:20:49;;;;;;;;;;;;;;;;;;6158517;23;19920;-87
2023/04/17 04:23:23;;;;;;;;;;;;;;;;;;6157569;23;20365;-86
2023/04/17 04:25:55;;;;;;;;;;;;;;;;;;6158627;23;19927;-87
2023/04/17 04:28:36;;;;;;;;;;;;;;;;;;6158488;23;20000;-87
2023/04/17 04:31:10;;;;;;;;;;;;;;;;;;6134169;23;19920;-87
2023/04/17 04:33:43;;;;;;;;;;;;;;;;;;6168971;23;19920;-87
2023/04/17 04:36:19;;;;;;;;;;;;;;;;;;6134299;23;19932;-87
2023/04/17 04:38:49;;;;;;;;;;;;;;;;;;6134731;23;19921;-88
2023/04/17 04:41:24;;;;;;;;;;;;;;;;;;6168041;23;19928;-86
2023/04/17 04:43:53;;;;;;;;;;;;;;;;;;6167180;23;19928;-87
2023/04/17 04:46:22;;;;;;;;;;;;;;;;;;6133190;23;20379;-88
2023/04/17 04:48:53;;;;;;;;;;;;;;;;;;6168538;23;19920;-88
2023/04/17 04:51:20;;;;;;;;;;;;;;;;;;6168660;23;19928;-88
2023/04/17 04:53:50;;;;;;;;;;;;;;;;;;6130583;23;19924;-87
2023/04/17 04:56:21;;;;;;;;;;;;;;;;;;6157476;23;20321;-87
2023/04/17 04:58:54;;;;;;;;;;;;;;;;;;6134445;23;19920;-87
2023/04/17 05:01:24;;;;;;;;;;;;;;;;;;6133002;23;19920;-87
2023/04/17 05:03:54;;;;;;;;;;;;;;;;;;6167561;23;19927;-87
2023/04/17 05:06:26;;;;;;;;;;;;;;;;;;6133692;23;20337;-87
2023/04/17 05:09:01;;;;;;;;;;;;;;;;;;6168924;23;19931;-87
2023/04/17 05:11:32;;;;;;;;;;;;;;;;;;6194599;23;19920;-88
2023/04/17 05:14:01;;;;;;;;;;;;;;;;;;6158276;23;20367;-87
2023/04/17 05:16:32;;;;;;;;;;;;;;;;;;6131565;23;19921;-88
2023/04/17 05:18:59;;;;;;;;;;;;;;;;;;6157401;23;19939;-88
2023/04/17 05:21:52;;;;;;;;;;;;;;;;;;6179876;23;19927;-87
2023/04/17 05:24:23;;;;;;;;;;;;;;;;;;6157818;23;19924;-87
2023/04/17 05:26:50;;;;;;;;;;;;;;;;;;6133338;23;20019;-88
2023/04/17 05:29:21;;;;;;;;;;;;;;;;;;6133839;23;20252;-88
2023/04/17 05:31:49;;;;;;;;;;;;;;;;;;6133396;23;19928;-88
2023/04/17 05:34:29;;;;;;;;;;;;;;;;;;6164425;23;19928;-88
2023/04/17 05:36:56;;;;;;;;;;;;;;;;;;6134220;23;19920;-87
2023/04/17 05:39:26;;;;;;;;;;;;;;;;;;6132520;23;19928;-87
2023/04/17 05:41:55;;;;;;;;;;;;;;;;;;6158515;23;20349;-88
2023/04/17 05:44:22;;;;;;;;;;;;;;;;;;6133394;23;19920;-87
2023/04/17 05:46:51;;;;;;;;;;;;;;;;;;6158112;23;19927;-88
2023/04/17 05:49:18;;;;;;;;;;;;;;;;;;6132731;23;19920;-87
2023/04/17 05:51:45;;;;;;;;;;;;;;;;;;6159047;23;19928;-88
2023/04/17 05:54:13;;;;;;;;;;;;;;;;;;6158886;23;19932;-87
2023/04/17 05:56:41;;;;;;;;;;;;;;;;;;6133508;23;19927;-87
2023/04/17 05:59:08;;;;;;;;;;;;;;;;;;6157831;23;19920;-88
2023/04/17 06:01:38;;;;;;;;;;;;;;;;;;6157588;23;19924;-88
2023/04/17 06:04:06;;;;;;;;;;;;;;;;;;6131842;23;19931;-87
2023/04/17 06:06:36;;;;;;;;;;;;;;;;;;6133811;23;19924;-88
2023/04/17 06:09:04;;;;;;;;;;;;;;;;;;6158081;23;19928;-88
2023/04/17 06:11:31;;;;;;;;;;;;;;;;;;6157403;23;19920;-87
2023/04/17 06:14:01;;;;;;;;;;;;;;;;;;6157646;23;20263;-88
2023/04/17 06:16:28;;;;;;;;;;;;;;;;;;6133192;23;19928;-87
2023/04/17 06:18:55;;;;;;;;;;;;;;;;;;6157308;23;19927;-87
2023/04/17 06:21:25;;;;;;;;;;;;;;;;;;6132778;23;20348;-87
2023/04/17 06:23:52;;;;;;;;;;;;;;;;;;6132522;23;19928;-87
2023/04/17 06:26:21;;;;;;;;;;;;;;;;;;6157633;23;19924;-88
2023/04/17 06:28:50;;;;;;;;;;;;;;;;;;6132517;23;19928;-86
2023/04/17 06:31:19;;;;;;;;;;;;;;;;;;6157217;23;19921;-87
2023/04/17 06:33:48;;;;;;;;;;;;;;;;;;6157443;23;19943;-87
2023/04/17 06:36:19;;;;;;;;;;;;;;;;;;6132287;23;19921;-87
2023/04/17 06:38:50;;;;;;;;;;;;;;;;;;6155448;23;20344;-87
2023/04/17 06:41:21;;;;;;;;;;;;;;;;;;6166988;23;19920;-87
2023/04/17 06:43:48;;;;;;;;;;;;;;;;;;6128406;23;19927;-88
2023/04/17 06:46:15;;;;;;;;;;;;;;;;;;6155959;23;19920;-87
2023/04/17 06:48:48;;;;;;;;;;;;;;;;;;6156164;23;20243;-87
2023/04/17 06:51:16;;;;;;;;;;;;;;;;;;6167398;23;19924;-87
2023/04/17 06:53:43;;;;;;;;;;;;;;;;;;6132213;23;20276;-88
2023/04/17 06:56:14;;;;;;;;;;;;;;;;;;6183878;23;19931;-88
2023/04/17 06:58:43;;;;;;;;;;;;;;;;;;6193682;23;19933;-88
2023/04/17 07:01:10;;;;;;;;;;;;;;;;;;6157078;23;19920;-87
2023/04/17 07:03:38;;;;;;;;;;;;;;;;;;6156698;23;19920;-88
2023/04/17 07:06:05;;;;;;;;;;;;;;;;;;6157425;23;20263;-87
2023/04/17 07:08:32;;;;;;;;;;;;;;;;;;6183098;23;19931;-87
2023/04/17 07:11:01;;;;;;;;;;;;;;;;;;6184793;23;19920;-88
2023/04/17 07:13:31;;;;;;;;;;;;;;;;;;6183898;23;19920;-88
2023/04/17 07:15:59;;;;;;;;;;;;;;;;;;6159167;23;19920;-88
2023/04/17 07:18:29;;;;;;;;;;;;;;;;;;6195050;23;19920;-88
2023/04/17 07:20:58;;;;;;;;;;;;;;;;;;6185543;23;19920;-87
2023/04/17 07:23:25;;;;;;;;;;;;;;;;;;6184282;23;19927;-88
2023/04/17 07:25:53;;;;;;;;;;;;;;;;;;6184895;23;20355;-88
2023/04/17 07:28:24;;;;;;;;;;;;;;;;;;6194725;23;19928;-87
2023/04/17 07:30:56;;;;;;;;;;;;;;;;;;6159227;23;20352;-87
2023/04/17 07:33:23;;;;;;;;;;;;;;;;;;6157602;23;19927;-87
2023/04/17 07:35:53;;;;;;;;;;;;;;;;;;6133434;23;19921;-87
2023/04/17 07:38:20;;;;;;;;;;;;;;;;;;6185297;23;19924;-88
2023/04/17 07:40:47;;;;;;;;;;;;;;;;;;6185573;23;19920;-88
2023/04/17 07:43:15;;;;;;;;;;;;;;;;;;6184798;23;20371;-87
2023/04/17 07:45:44;;;;;;;;;;;;;;;;;;6159210;23;19924;-87
2023/04/17 07:48:13;;;;;;;;;;;;;;;;;;6157288;23;19947;-87
2023/04/17 07:50:40;;;;;;;;;;;;;;;;;;6158906;23;19947;-87
2023/04/17 07:53:07;;;;;;;;;;;;;;;;;;6185284;23;19920;-87
2023/04/17 07:55:36;;;;;;;;;;;;;;;;;;6158263;23;19939;-87
2023/04/17 07:58:05;;;;;;;;;;;;;;;;;;6184829;23;19931;-87
2023/04/17 08:00:35;;;;;;;;;;;;;;;;;;6184793;23;19920;-87
2023/04/17 08:03:04;;;;;;;;;;;;;;;;;;6159799;23;19920;-86
2023/04/17 08:05:33;;;;;;;;;;;;;;;;;;6158711;23;19924;-87
2023/04/17 08:08:03;;;;;;;;;;;;;;;;;;6195057;23;19920;-87
2023/04/17 08:10:30;;;;;;;;;;;;;;;;;;6157919;23;19920;-88
2023/04/17 08:12:57;;;;;;;;;;;;;;;;;;6185873;23;19920;-87
2023/04/17 08:15:27;;;;;;;;;;;;;;;;;;6184111;23;19921;-87
2023/04/17 08:17:58;;;;;;;;;;;;;;;;;;6195506;23;19920;-88
2023/04/17 08:20:28;;;;;;;;;;;;;;;;;;6133777;23;19927;-87
2023/04/17 08:22:59;;;;;;;;;;;;;;;;;;6193228;23;19920;-87
2023/04/17 08:25:31;;;;;;;;;;;;;;;;;;6133738;23;19920;-86
2023/04/17 08:28:00;;;;;;;;;;;;;;;;;;6157971;23;20253;-86
2023/04/17 08:30:32;;;;;;;;;;;;;;;;;;6133433;23;19920;-86
2023/04/17 08:32:59;;;;;;;;;;;;;;;;;;6184950;23;19920;-86
2023/04/17 10:13:13;;;;;;;;;;;;;;;;;;6195597;23;19919;-92
2023/04/17 10:15:43;;;;;;;;;;;;;;;;;;6161804;23;20313;-86
2023/04/17 14:35:48;;;;;;;;;;;;;;;;;;6186661;23;19921;-80
2023/04/17 14:38:18;;;;;;;;;;;;;;;;;;6169092;23;19924;-80
2023/04/17 14:40:50;;;;;;;;;;;;;;;;;;6159260;23;20260;-80
2023/04/17 14:43:17;;;;;;;;;;;;;;;;;;6186058;23;19920;-80
2023/04/17 14:45:44;;;;;;;;;;;;;;;;;;6159683;23;19921;-79
2023/04/17 14:48:11;;;;;;;;;;;;;;;;;;6186326;23;19920;-80
2023/04/17 14:50:38;;;;;;;;;;;;;;;;;;6159307;23;19924;-80
2023/04/17 14:53:06;;;;;;;;;;;;;;;;;;6185827;23;19925;-79
2023/04/17 14:55:35;;;;;;;;;;;;;;;;;;6157623;23;19928;-80
2023/04/17 14:58:02;;;;;;;;;;;;;;;;;;6169791;23;19920;-80
2023/04/17 15:00:30;;;;;;;;;;;;;;;;;;6159096;23;19925;-80
2023/04/17 15:02:57;;;;;;;;;;;;;;;;;;6186125;23;19928;-80
2023/04/17 15:05:24;;;;;;;;;;;;;;;;;;6158984;23;19921;-80
2023/04/17 15:07:53;;;;;;;;;;;;;;;;;;6135162;23;20432;-80
2023/04/17 15:10:21;;;;;;;;;;;;;;;;;;6168913;23;19927;-80
2023/04/17 15:12:48;;;;;;;;;;;;;;;;;;6159624;23;20338;-80
2023/04/17 15:15:15;;;;;;;;;;;;;;;;;;6185029;23;19920;-80
2023/04/17 15:17:42;;;;;;;;;;;;;;;;;;6185292;23;19920;-80
2023/04/17 15:20:09;;;;;;;;;;;;;;;;;;6133785;23;19924;-80
2023/04/17 15:22:39;;;;;;;;;;;;;;;;;;6159353;23;19924;-80
2023/04/17 15:25:09;;;;;;;;;;;;;;;;;;6184635;23;19924;-80
2023/04/17 15:27:37;;;;;;;;;;;;;;;;;;6185466;23;19920;-80
2023/04/17 15:30:08;;;;;;;;;;;;;;;;;;6168583;23;19920;-80
2023/04/17 15:32:35;;;;;;;;;;;;;;;;;;6168177;23;19927;-80
2023/04/17 15:35:02;;;;;;;;;;;;;;;;;;6158872;23;19920;-79
2023/04/17 15:37:29;;;;;;;;;;;;;;;;;;6134069;23;19928;-80
2023/04/17 15:39:56;;;;;;;;;;;;;;;;;;6184710;23;20097;-79
2023/04/17 15:42:23;;;;;;;;;;;;;;;;;;6157298;23;19924;-79
2023/04/17 15:44:54;;;;;;;;;;;;;;;;;;6158348;23;19920;-79
2023/04/17 15:47:23;;;;;;;;;;;;;;;;;;6133379;23;19920;-79
2023/04/17 15:49:50;;;;;;;;;;;;;;;;;;6183198;23;19947;-79
2023/04/17 15:52:19;;;;;;;;;;;;;;;;;;6185223;23;19924;-79
2023/04/17 15:54:46;;;;;;;;;;;;;;;;;;6184006;23;19972;-80
2023/04/17 15:57:13;;;;;;;;;;;;;;;;;;6166198;23;20321;-79
2023/04/17 15:59:40;;;;;;;;;;;;;;;;;;6133706;23;19920;-80
2023/04/17 16:02:09;;;;;;;;;;;;;;;;;;6132396;23;20340;-79
2023/04/17 16:04:38;;;;;;;;;;;;;;;;;;6156846;23;20359;-79
2023/04/17 16:07:06;;;;;;;;;;;;;;;;;;6157634;23;19972;-80
2023/04/17 16:09:33;;;;;;;;;;;;;;;;;;6132891;23;19927;-80
2023/04/17 16:12:01;;;;;;;;;;;;;;;;;;6157092;23;19921;-80
2023/04/17 16:14:28;;;;;;;;;;;;;;;;;;6133565;23;19920;-79
2023/04/17 16:16:58;;;;;;;;;;;;;;;;;;6155510;23;19920;-80
2023/04/17 16:19:29;;;;;;;;;;;;;;;;;;6157444;23;20341;-79
2023/04/17 16:21:58;;;;;;;;;;;;;;;;;;6167465;23;20241;-80
2023/04/17 16:24:28;;;;;;;;;;;;;;;;;;6193500;23;19920;-80
2023/04/17 16:26:56;;;;;;;;;;;;;;;;;;6183872;23;19955;-80
2023/04/17 16:29:23;;;;;;;;;;;;;;;;;;6193982;23;19920;-80
2023/04/17 16:31:52;;;;;;;;;;;;;;;;;;6132251;23;19928;-80
2023/04/17 16:34:22;;;;;;;;;;;;;;;;;;6184089;23;19920;-80
2023/04/17 16:36:50;;;;;;;;;;;;;;;;;;6159781;23;19927;-80
2023/04/17 16:39:17;;;;;;;;;;;;;;;;;;6132233;23;19920;-80
2023/04/17 16:41:44;;;;;;;;;;;;;;;;;;6157294;23;20337;-80
2023/04/17 16:44:13;;;;;;;;;;;;;;;;;;6156335;23;19924;-80
2023/04/17 16:46:40;;;;;;;;;;;;;;;;;;6157478;23;19924;-81
2023/04/17 16:49:10;;;;;;;;;;;;;;;;;;6182864;23;19927;-80
2023/04/17 16:51:37;;;;;;;;;;;;;;;;;;6157865;23;20392;-80
2023/04/17 16:54:06;;;;;;;;;;;;;;;;;;6132645;23;20355;-81
2023/04/17 16:56:35;;;;;;;;;;;;;;;;;;6157710;23;19920;-80
2023/04/17 16:59:03;;;;;;;;;;;;;;;;;;6183274;23;19920;-81
2023/04/17 17:01:33;;;;;;;;;;;;;;;;;;6165590;23;20360;-81
2023/04/17 17:04:00;;;;;;;;;;;;;;;;;;6131558;23;19920;-80
2023/04/17 17:06:30;;;;;;;;;;;;;;;;;;6157892;23;19920;-80
2023/04/17 17:08:58;;;;;;;;;;;;;;;;;;6157630;23;19927;-80
2023/04/17 17:11:26;;;;;;;;;;;;;;;;;;6155977;23;20260;-79
2023/04/17 17:13:56;;;;;;;;;;;;;;;;;;6193207;23;19920;-80
2023/04/17 17:16:23;;;;;;;;;;;;;;;;;;6183302;23;19928;-80
2023/04/17 17:18:53;;;;;;;;;;;;;;;;;;6182442;23;19920;-80
2023/04/17 17:21:20;;;;;;;;;;;;;;;;;;6183448;23;19924;-80
2023/04/17 17:23:49;;;;;;;;;;;;;;;;;;6157897;23;19920;-80
2023/04/17 17:26:16;;;;;;;;;;;;;;;;;;6156304;23;19968;-80
2023/04/17 17:28:49;;;;;;;;;;;;;;;;;;6183672;23;19920;-80
2023/04/17 17:31:16;;;;;;;;;;;;;;;;;;6166171;23;19920;-80
2023/04/17 17:33:43;;;;;;;;;;;;;;;;;;6157578;23;19947;-80
2023/04/17 17:36:11;;;;;;;;;;;;;;;;;;6158237;23;19920;-80
2023/04/17 17:38:40;;;;;;;;;;;;;;;;;;6156510;23;20344;-80
2023/04/17 17:41:09;;;;;;;;;;;;;;;;;;6157109;23;19928;-80
2023/04/17 17:43:39;;;;;;;;;;;;;;;;;;6131668;23;19920;-80
2023/04/17 17:46:07;;;;;;;;;;;;;;;;;;6160190;23;19947;-80
2023/04/17 17:48:36;;;;;;;;;;;;;;;;;;6132611;23;19931;-80
2023/04/17 17:51:03;;;;;;;;;;;;;;;;;;6133074;23;19927;-80
2023/04/17 17:56:54;;;;;;;;;;;;;;;;;;6138819;23;19927;-90
2023/04/17 17:59:21;;;;;;;;;;;;;;;;;;6127752;23;20255;-89
2023/04/17 18:01:50;;;;;;;;;;;;;;;;;;6158172;23;19920;-89
2023/04/17 18:04:17;;;;;;;;;;;;;;;;;;6158340;23;19925;-90
2023/04/17 18:06:44;;;;;;;;;;;;;;;;;;6132547;23;20259;-90
2023/04/17 18:09:36;;;;;;;;;;;;;;;;;;6153473;23;19945;-85
2023/04/17 18:12:04;;;;;;;;;;;;;;;;;;6135078;23;19920;-89
2023/04/17 18:14:34;;;;;;;;;;;;;;;;;;6132306;23;19924;-89
2023/04/17 18:17:05;;;;;;;;;;;;;;;;;;6130833;23;20260;-90
2023/04/17 18:19:32;;;;;;;;;;;;;;;;;;6105954;23;20492;-88
2023/04/17 18:22:04;;;;;;;;;;;;;;;;;;6107033;23;19920;-88
2023/04/17 18:24:37;;;;;;;;;;;;;;;;;;6131723;23;19921;-89
2023/04/17 18:27:04;;;;;;;;;;;;;;;;;;6129499;23;19924;-90
2023/04/17 18:29:34;;;;;;;;;;;;;;;;;;6130827;23;19924;-89
2023/04/17 18:32:03;;;;;;;;;;;;;;;;;;6104871;23;19924;-86
2023/04/17 18:34:31;;;;;;;;;;;;;;;;;;6106394;23;19925;-87
2023/04/17 18:36:59;;;;;;;;;;;;;;;;;;6106157;23;19920;-89
2023/04/17 18:39:33;;;;;;;;;;;;;;;;;;6157430;23;20363;-88
2023/04/17 18:42:01;;;;;;;;;;;;;;;;;;6106568;23;19921;-90
2023/04/17 18:44:28;;;;;;;;;;;;;;;;;;6130823;23;19940;-89
2023/04/17 18:46:55;;;;;;;;;;;;;;;;;;6105404;23;20272;-87
2023/04/17 18:49:26;;;;;;;;;;;;;;;;;;6106947;23;19950;-89
2023/04/17 18:51:54;;;;;;;;;;;;;;;;;;6156911;23;19920;-86
2023/04/17 18:54:23;;;;;;;;;;;;;;;;;;6106871;23;19921;-89
2023/04/17 18:56:51;;;;;;;;;;;;;;;;;;6105679;23;19920;-88
2023/04/17 18:59:20;;;;;;;;;;;;;;;;;;6106714;23;19932;-90
2023/04/17 19:01:50;;;;;;;;;;;;;;;;;;6108243;23;20245;-89
2023/04/17 19:04:20;;;;;;;;;;;;;;;;;;6130347;23;20268;-88
2023/04/17 19:06:49;;;;;;;;;;;;;;;;;;6129575;23;19921;-89
2023/04/17 19:09:19;;;;;;;;;;;;;;;;;;6133572;23;19921;-87
2023/04/17 19:11:48;;;;;;;;;;;;;;;;;;6109369;23;19921;-89
2023/04/17 19:14:15;;;;;;;;;;;;;;;;;;6107087;23;19932;-88
2023/04/17 19:16:43;;;;;;;;;;;;;;;;;;6108189;23;19921;-89
2023/04/17 19:19:12;;;;;;;;;;;;;;;;;;6110002;23;19921;-90
2023/04/17 19:21:41;;;;;;;;;;;;;;;;;;6134175;23;19925;-88
2023/04/17 19:24:11;;;;;;;;;;;;;;;;;;6130831;23;19920;-88
2023/04/17 19:26:41;;;;;;;;;;;;;;;;;;6142587;23;19927;-89
2023/04/17 19:29:11;;;;;;;;;;;;;;;;;;6133773;23;19921;-89
2023/04/17 19:31:39;;;;;;;;;;;;;;;;;;6133514;23;19920;-88
2023/04/17 19:34:11;;;;;;;;;;;;;;;;;;6132723;23;20269;-87
2023/04/17 19:36:47;;;;;;;;;;;;;;;;;;6107696;23;19920;-88
2023/04/17 19:39:20;;;;;;;;;;;;;;;;;;6109625;23;20460;-89
2023/04/17 19:41:50;;;;;;;;;;;;;;;;;;6109260;23;19925;-88
2023/04/17 19:44:28;;;;;;;;;;;;;;;;;;6108830;23;19921;-88
2023/04/17 19:46:55;;;;;;;;;;;;;;;;;;6106373;23;19921;-87
2023/04/17 19:49:25;;;;;;;;;;;;;;;;;;6130612;23;19920;-88
2023/04/17 19:51:54;;;;;;;;;;;;;;;;;;6132911;23;19920;-89
2023/04/17 19:54:24;;;;;;;;;;;;;;;;;;6109527;23;19939;-89
2023/04/17 19:56:54;;;;;;;;;;;;;;;;;;6109182;23;19920;-88
2023/04/17 19:59:22;;;;;;;;;;;;;;;;;;6110190;23;19920;-88
2023/04/17 20:01:50;;;;;;;;;;;;;;;;;;6132317;23;19927;-89
2023/04/17 20:04:20;;;;;;;;;;;;;;;;;;6107524;23;20611;-88
2023/04/17 20:06:47;;;;;;;;;;;;;;;;;;6105701;23;19928;-89
2023/04/17 20:09:19;;;;;;;;;;;;;;;;;;6109003;23;19920;-87
2023/04/17 20:11:52;;;;;;;;;;;;;;;;;;6109460;23;20352;-87
2023/04/17 20:14:23;;;;;;;;;;;;;;;;;;6150597;23;20364;-90
2023/04/17 20:16:51;;;;;;;;;;;;;;;;;;6088033;23;19920;-90
2023/04/17 20:19:19;;;;;;;;;;;;;;;;;;6109624;23;19921;-89
2023/04/17 20:21:47;;;;;;;;;;;;;;;;;;6110354;23;20639;-88
2023/04/17 20:24:16;;;;;;;;;;;;;;;;;;6112738;23;19924;-88
2023/04/17 20:26:44;;;;;;;;;;;;;;;;;;6134141;23;20619;-89
2023/04/17 20:29:13;;;;;;;;;;;;;;;;;;6166445;23;19925;-90
2023/04/17 20:31:41;;;;;;;;;;;;;;;;;;6107894;23;19920;-89
2023/04/17 20:34:11;;;;;;;;;;;;;;;;;;6134552;23;19921;-89
2023/04/17 20:36:40;;;;;;;;;;;;;;;;;;6166387;23;19924;-88
2023/04/17 20:39:09;;;;;;;;;;;;;;;;;;6105319;23;19927;-88
2023/04/17 20:41:36;;;;;;;;;;;;;;;;;;6105956;23;19921;-88
2023/04/17 20:44:04;;;;;;;;;;;;;;;;;;6107127;23;19927;-88
2023/04/17 20:46:33;;;;;;;;;;;;;;;;;;6106101;23;19920;-88
2023/04/17 20:49:00;;;;;;;;;;;;;;;;;;6166363;23;19920;-88
2023/04/17 20:51:32;;;;;;;;;;;;;;;;;;6105120;23;19925;-91
2023/04/17 20:54:07;;;;;;;;;;;;;;;;;;6132448;23;19931;-89
2023/04/17 20:56:37;;;;;;;;;;;;;;;;;;6129552;23;19920;-89
2023/04/17 20:59:05;;;;;;;;;;;;;;;;;;6132037;23;20373;-89
2023/04/17 21:01:34;;;;;;;;;;;;;;;;;;6130883;23;20363;-91
2023/04/17 21:04:04;;;;;;;;;;;;;;;;;;6107099;23;20403;-90
2023/04/17 21:06:31;;;;;;;;;;;;;;;;;;6157302;23;19921;-87
2023/04/17 21:09:01;;;;;;;;;;;;;;;;;;6106685;23;19927;-89
2023/04/17 21:11:28;;;;;;;;;;;;;;;;;;6130975;23;19924;-88
2023/04/17 21:13:59;;;;;;;;;;;;;;;;;;6138376;23;19921;-89
2023/04/17 21:16:27;;;;;;;;;;;;;;;;;;6130188;23;19920;-88
2023/04/17 21:18:56;;;;;;;;;;;;;;;;;;6130892;23;19928;-87
2023/04/17 21:21:23;;;;;;;;;;;;;;;;;;6140920;23;19947;-90
2023/04/17 21:23:56;;;;;;;;;;;;;;;;;;6104751;23;19940;-88
2023/04/17 21:26:23;;;;;;;;;;;;;;;;;;6105356;23;20352;-90
2023/04/17 21:28:50;;;;;;;;;;;;;;;;;;6157088;23;19924;-89
2023/04/17 21:31:18;;;;;;;;;;;;;;;;;;6105801;23;19920;-89
2023/04/17 21:33:48;;;;;;;;;;;;;;;;;;6129863;23;20402;-87
2023/04/17 21:36:21;;;;;;;;;;;;;;;;;;6129951;23;19928;-88
2023/04/17 21:38:54;;;;;;;;;;;;;;;;;;6105681;23;19920;-89
2023/04/17 21:41:22;;;;;;;;;;;;;;;;;;6108286;23;19973;-89
2023/04/17 21:43:52;;;;;;;;;;;;;;;;;;6130984;23;19921;-89
2023/04/17 21:46:21;;;;;;;;;;;;;;;;;;6129616;23;19921;-90
2023/04/17 21:48:49;;;;;;;;;;;;;;;;;;6104753;23;19920;-88
2023/04/17 21:51:16;;;;;;;;;;;;;;;;;;6155463;23;19920;-87
2023/04/17 21:53:45;;;;;;;;;;;;;;;;;;6130811;23;19920;-89
2023/04/17 21:56:13;;;;;;;;;;;;;;;;;;6105216;23;19933;-90
2023/04/17 21:58:50;;;;;;;;;;;;;;;;;;6129443;23;19932;-89
2023/04/17 22:01:17;;;;;;;;;;;;;;;;;;6134482;23;19921;-90
2023/04/17 22:03:47;;;;;;;;;;;;;;;;;;6138700;23;19920;-90
2023/04/17 22:06:21;;;;;;;;;;;;;;;;;;6105401;23;19927;-89
2023/04/17 22:08:49;;;;;;;;;;;;;;;;;;6105933;23;19920;-87
2023/04/17 22:11:18;;;;;;;;;;;;;;;;;;6131248;23;19920;-88
2023/04/17 22:13:46;;;;;;;;;;;;;;;;;;6137887;23;19921;-89
2023/04/17 22:16:16;;;;;;;;;;;;;;;;;;6128959;23;19925;-88
2023/04/17 22:18:43;;;;;;;;;;;;;;;;;;6104497;23;19932;-87
2023/04/17 22:21:11;;;;;;;;;;;;;;;;;;6130601;23;19928;-89
2023/04/17 22:23:39;;;;;;;;;;;;;;;;;;6105044;23;20267;-87
2023/04/17 22:26:07;;;;;;;;;;;;;;;;;;6108632;23;20367;-88
2023/04/17 22:28:35;;;;;;;;;;;;;;;;;;6131699;23;19920;-87
2023/04/17 22:31:02;;;;;;;;;;;;;;;;;;6157271;23;20282;-90
2023/04/17 22:33:38;;;;;;;;;;;;;;;;;;6109937;23;19921;-88
2023/04/17 22:36:05;;;;;;;;;;;;;;;;;;6107069;23;19928;-88
2023/04/17 22:38:38;;;;;;;;;;;;;;;;;;6108362;23;19927;-88
2023/04/17 22:41:05;;;;;;;;;;;;;;;;;;6104790;23;19925;-88
2023/04/17 22:43:36;;;;;;;;;;;;;;;;;;6106217;23;19928;-89
2023/04/17 22:46:06;;;;;;;;;;;;;;;;;;6168460;23;19921;-90
2023/04/17 22:48:33;;;;;;;;;;;;;;;;;;6136094;23;19927;-89
2023/04/17 22:51:05;;;;;;;;;;;;;;;;;;6138213;23;19921;-89
2023/04/17 22:53:32;;;;;;;;;;;;;;;;;;6113946;23;20256;-91
2023/04/17 22:56:00;;;;;;;;;;;;;;;;;;6137779;23;19925;-88